Time;durP1;ratioP1;P1;durP2;ratioP2;P2;SDS_P1;SDS_P2;PMS_P1;PMS_P2;Temp;Humidity;BMP_temperature;BMP_pressure;BME280_temperature;BME280_humidity;BME280_pressure;Samples;Min_cycle;Max_cycle;Signal;HPM_P1;HPM_P2
2021/12/02 00:02:22;;;;;;;3.10;2.90;;;;;;;-7.32;69.88;99312.63;4916466;29;20516;-63
2021/12/02 00:04:48;;;;;;;3.17;2.97;;;;;;;-7.29;69.92;99319.41;4916520;29;20096;-62
2021/12/02 00:07:14;;;;;;;3.50;3.20;;;;;;;-7.30;68.99;99313.38;4916630;29;20044;-62
2021/12/02 00:09:40;;;;;;;3.90;3.53;;;;;;;-7.29;69.45;99330.56;4916413;29;20774;-64
2021/12/02 00:12:07;;;;;;;3.05;2.83;;;;;;;-7.41;69.28;99308.00;4899366;29;20280;-62
2021/12/02 00:14:40;;;;;;;2.90;2.70;;;;;;;-7.30;68.88;99328.06;4916672;29;20099;-64
2021/12/02 00:17:17;;;;;;;3.92;3.53;;;;;;;-7.47;68.27;99316.09;4916275;29;20031;-65
2021/12/02 00:22:29;;;;;;;3.03;2.83;;;;;;;-7.28;67.66;99349.50;4916187;29;20119;-64
2021/12/02 00:25:00;;;;;;;3.63;3.38;;;;;;;-7.38;68.01;99325.09;4915895;29;20469;-63
2021/12/02 00:27:28;;;;;;;3.83;3.00;;;;;;;-7.38;67.24;99330.25;4915943;29;20051;-63
2021/12/02 00:29:57;;;;;;;3.08;2.78;;;;;;;-7.30;67.73;99344.44;4899919;29;20055;-61
2021/12/02 00:32:26;;;;;;;4.07;3.75;;;;;;;-7.35;67.93;99332.69;4916604;29;20039;-62
2021/12/02 00:34:55;;;;;;;3.95;3.65;;;;;;;-7.59;67.53;99301.25;4898938;29;20046;-62
2021/12/02 00:37:22;;;;;;;;;;;;;;;-7.36;67.92;99349.94;4916205;29;20100;-63
2021/12/02 00:39:50;;;;;;;7.70;5.40;;;;;;;-7.48;67.31;99324.78;4915468;29;20370;-62
2021/12/02 00:42:16;;;;;;;6.97;6.15;;;;;;;-7.48;67.46;99332.53;4916279;29;20056;-63
2021/12/02 00:44:43;;;;;;;6.47;5.28;;;;;;;-7.55;67.29;99333.75;4889895;29;20112;-65
2021/12/02 00:47:09;;;;;;;4.63;4.22;;;;;;;-7.52;67.88;99339.63;4897294;29;20048;-62
2021/12/02 00:49:35;;;;;;;3.50;3.20;;;;;;;-7.52;67.63;99338.75;4896814;29;20072;-63
2021/12/02 00:52:02;;;;;;;3.20;3.00;;;;;;;-7.48;67.29;99342.88;4897648;29;20036;-62
2021/12/02 00:54:30;;;;;;;3.67;3.28;;;;;;;-7.42;66.31;99345.13;4896389;29;20084;-63
2021/12/02 00:56:55;;;;;;;4.15;3.85;;;;;;;-7.54;66.44;99327.66;4896863;29;20052;-62
2021/12/02 00:59:23;;;;;;;3.50;3.20;;;;;;;-7.47;66.61;99341.97;4897001;29;20056;-61
2021/12/02 01:01:52;;;;;;;3.50;3.20;;;;;;;-7.64;67.15;99323.94;4897348;29;20044;-63
2021/12/02 01:04:24;;;;;;;3.42;3.13;;;;;;;-7.38;67.38;99361.28;4896695;29;20044;-62
2021/12/02 01:06:51;;;;;;;3.65;3.35;;;;;;;-7.54;67.10;99333.69;4896763;29;20080;-62
2021/12/02 01:09:17;;;;;;;5.90;3.42;;;;;;;-7.44;66.40;99357.31;4896577;29;20036;-62
2021/12/02 01:11:43;;;;;;;4.13;3.50;;;;;;;-7.43;67.07;99364.13;4896844;29;20556;-63
2021/12/02 01:14:10;;;;;;;4.85;3.55;;;;;;;-7.65;67.09;99332.59;4896996;29;20158;-62
2021/12/02 01:16:36;;;;;;;3.38;3.08;;;;;;;-7.51;67.49;99353.38;4899923;29;20044;-62
2021/12/02 01:19:03;;;;;;;4.88;3.72;;;;;;;-7.37;67.34;99356.03;4900768;29;20553;-63
2021/12/02 01:21:29;;;;;;;4.38;3.75;;;;;;;-7.27;67.58;99370.13;4900546;29;20038;-65
2021/12/02 01:24:00;;;;;;;3.60;3.30;;;;;;;-7.24;67.37;99380.28;4901123;29;20039;-66
2021/12/02 01:26:28;;;;;;;5.25;3.20;;;;;;;-7.30;66.54;99372.88;4900484;29;20067;-61
2021/12/02 01:28:55;;;;;;;6.93;3.55;;;;;;;-7.49;67.45;99351.56;4900559;29;20488;-62
2021/12/02 01:31:22;;;;;;;4.28;3.88;;;;;;;-7.29;66.88;99376.28;4900326;29;20417;-62
2021/12/02 01:33:47;;;;;;;5.38;3.78;;;;;;;-7.24;67.21;99380.28;4900313;29;20039;-64
2021/12/02 01:36:13;;;;;;;6.40;5.17;;;;;;;-7.18;66.49;99385.16;4900062;29;20036;-64
2021/12/02 01:38:40;;;;;;;5.07;3.97;;;;;;;-7.25;66.46;99365.69;4900313;29;20040;-67
2021/12/02 01:41:07;;;;;;;4.45;3.75;;;;;;;-7.19;66.48;99383.50;4899789;29;20151;-65
2021/12/02 01:43:49;;;;;;;3.90;3.60;;;;;;;-7.14;67.02;99388.41;4900883;29;20036;-63
2021/12/02 01:46:18;;;;;;;3.85;3.47;;;;;;;-7.27;66.35;99374.47;4919417;29;20081;-63
2021/12/02 01:48:49;;;;;;;3.83;3.27;;;;;;;-7.16;66.65;99377.31;4919845;29;20097;-64
2021/12/02 01:51:18;;;;;;;3.30;3.00;;;;;;;-7.13;66.90;99355.59;4918910;29;20284;-64
2021/12/02 01:53:43;;;;;;;7.00;4.93;;;;;;;-7.06;67.04;99365.50;4918822;29;20076;-62
2021/12/02 01:56:14;;;;;;;11.70;7.57;;;;;;;-7.05;66.49;99364.59;4918654;29;20074;-64
2021/12/02 01:58:51;;;;;;;20.95;11.90;;;;;;;-7.06;66.74;99343.97;4918888;29;20036;-62
2021/12/02 02:01:26;;;;;;;36.45;20.80;;;;;;;-6.93;67.82;99370.84;4918527;29;20052;-62
2021/12/02 02:03:54;;;;;;;19.42;12.13;;;;;;;-6.96;66.59;99378.75;4919491;29;20459;-63
2021/12/02 02:06:33;;;;;;;22.58;15.23;;;;;;;-6.97;66.90;99367.56;4918473;29;20492;-63
2021/12/02 02:09:00;;;;;;;16.10;10.07;;;;;;;-7.20;66.57;99335.25;4918464;29;20035;-64
2021/12/02 02:11:28;;;;;;;7.80;6.03;;;;;;;-7.13;66.48;99360.78;4918333;29;20052;-64
2021/12/02 02:13:54;;;;;;;6.13;5.47;;;;;;;-7.29;67.32;99348.69;4918445;29;20039;-61
2021/12/02 02:16:20;;;;;;;4.22;3.67;;;;;;;-7.26;67.09;99358.84;4918262;29;20501;-61
2021/12/02 02:18:46;;;;;;;4.30;3.70;;;;;;;-7.53;67.89;99326.75;4918504;29;20036;-63
2021/12/02 02:21:15;;;;;;;8.40;7.45;;;;;;;-7.41;68.26;99351.13;4918168;29;20500;-65
2021/12/02 02:24:15;;;;;;;7.05;6.35;;;;;;;-7.43;67.94;99353.78;4918176;29;20071;-63
2021/12/02 02:26:36;;;;;;;5.78;5.18;;;;;;;-7.48;69.02;99360.13;4913110;29;20385;-62
2021/12/02 02:29:03;;;;;;;;;;;;;;;-7.39;69.56;99363.03;4918490;29;20076;-62
2021/12/02 02:31:29;;;;;;;5.55;5.05;;;;;;;-7.35;68.52;99359.38;4918034;29;19977;-64
2021/12/02 02:33:55;;;;;;;7.75;6.20;;;;;;;-7.32;68.98;99356.59;4918193;29;20135;-63
2021/12/02 02:36:25;;;;;;;6.78;6.03;;;;;;;-7.29;68.29;99356.44;4918052;29;20040;-62
2021/12/02 02:38:59;;;;;;;;;;;;;;;-7.29;68.82;99359.03;4918268;29;20564;-64
2021/12/02 02:41:38;;;;;;;7.32;5.10;;;;;;;-7.29;69.77;99355.59;4917822;29;20310;-61
2021/12/02 02:44:05;;;;;;;6.85;5.35;;;;;;;-7.29;69.91;99350.44;4917511;29;20067;-62
2021/12/02 02:46:37;;;;;;;9.40;6.30;;;;;;;-7.23;69.58;99363.03;4917704;29;20110;-62
2021/12/02 02:49:07;;;;;;;7.30;6.18;;;;;;;-7.30;69.32;99352.19;4918403;29;20538;-65
2021/12/02 02:51:33;;;;;;;8.23;5.45;;;;;;;-7.36;69.24;99354.28;4917905;29;20091;-62
2021/12/02 02:54:05;;;;;;;12.10;6.00;;;;;;;-7.43;69.86;99342.63;4917643;29;20066;-62
2021/12/02 02:56:34;;;;;;;7.38;5.97;;;;;;;-7.43;70.78;99337.44;4917705;29;20043;-62
2021/12/02 02:59:14;;;;;;;7.13;5.57;;;;;;;-7.09;70.25;99375.19;4917500;29;20043;-62
2021/12/02 03:07:40;;;;;;;5.53;4.75;;;;;;;-6.85;68.22;99365.22;4917384;29;20051;-62
2021/12/02 03:10:17;;;;;;;6.30;4.40;;;;;;;-6.71;68.45;99380.78;4917690;29;20040;-62
2021/12/02 03:12:56;;;;;;;10.00;4.47;;;;;;;-6.69;68.46;99387.56;4917435;29;20044;-62
2021/12/02 03:17:50;;;;;;;5.70;4.63;;;;;;;-6.75;67.85;99385.31;4917392;29;20088;-61
2021/12/02 03:20:17;;;;;;;6.00;4.30;;;;;;;-6.83;67.27;99384.09;4917565;29;20055;-63
2021/12/02 03:22:43;;;;;;;6.45;5.60;;;;;;;-6.93;67.50;99374.28;4917240;29;20083;-63
2021/12/02 03:25:09;;;;;;;6.30;5.05;;;;;;;-6.91;68.78;99387.13;4900427;29;20476;-61
2021/12/02 03:27:35;;;;;;;6.78;5.78;;;;;;;-6.95;68.47;99383.00;4917051;29;20096;-63
2021/12/02 03:30:03;;;;;;;8.63;5.60;;;;;;;-7.08;68.73;99363.94;4917186;29;20039;-63
2021/12/02 03:32:29;;;;;;;10.75;6.50;;;;;;;-7.01;67.96;99383.38;4917227;29;20471;-61
2021/12/02 03:34:55;;;;;;;6.55;5.30;;;;;;;-6.98;68.16;99396.13;4917845;29;20067;-62
2021/12/02 03:37:21;;;;;;;8.03;5.80;;;;;;;-7.10;68.66;99391.66;4917533;29;20488;-64
2021/12/02 03:39:47;;;;;;;6.25;4.53;;;;;;;-7.19;68.53;99406.78;4917067;29;20040;-64
2021/12/02 03:42:13;;;;;;;5.03;4.53;;;;;;;-7.37;68.50;99386.25;4917566;29;20044;-63
2021/12/02 03:44:40;;;;;;;6.73;5.30;;;;;;;-7.32;69.36;99407.50;4908556;29;20057;-65
2021/12/02 03:47:05;;;;;;;7.55;5.60;;;;;;;-7.36;68.70;99382.72;4898345;29;20051;-65
2021/12/02 03:49:32;;;;;;;6.70;4.97;;;;;;;-7.21;70.20;99403.44;4898743;29;20135;-64
2021/12/02 03:51:58;;;;;;;8.33;5.50;;;;;;;-7.11;70.46;99408.09;4898700;29;20513;-64
2021/12/02 03:54:23;;;;;;;6.23;5.23;;;;;;;-7.08;70.89;99387.22;4898434;29;20295;-62
2021/12/02 03:56:49;;;;;;;8.03;5.17;;;;;;;-6.89;70.41;99396.47;4898584;29;20044;-65
2021/12/02 03:59:16;;;;;;;9.10;5.13;;;;;;;-6.86;70.08;99395.47;4898402;29;20550;-62
2021/12/02 04:01:42;;;;;;;5.68;5.10;;;;;;;-6.93;69.07;99391.56;4898011;29;20273;-63
2021/12/02 04:04:08;;;;;;;6.63;4.43;;;;;;;-7.01;69.90;99397.13;4898307;29;20044;-63
2021/12/02 04:06:34;;;;;;;6.03;4.73;;;;;;;-7.12;70.17;99388.31;4897906;29;20397;-63
2021/12/02 04:11:55;;;;;;;8.63;5.30;;;;;;;-7.25;70.91;99396.72;4897593;29;20036;-64
2021/12/02 04:15:24;;;;;;;6.57;5.40;;;;;;;-7.40;70.00;99371.72;4880785;29;20132;-63
2021/12/02 04:17:18;;;;;;;6.07;4.40;;;;;;;-7.34;69.91;99381.72;4880444;29;20056;-66
2021/12/02 04:19:45;;;;;;;6.00;4.53;;;;;;;-7.44;69.67;99366.81;4881050;29;20055;-63
2021/12/02 04:22:11;;;;;;;5.45;4.82;;;;;;;-7.41;70.90;99380.41;4880834;29;20036;-63
2021/12/02 04:24:37;;;;;;;6.57;5.97;;;;;;;-7.52;70.64;99372.38;4878827;29;20048;-62
2021/12/02 04:27:03;;;;;;;6.03;4.55;;;;;;;-7.61;71.69;99370.28;4897087;29;20048;-67
2021/12/02 04:29:30;;;;;;;6.10;4.97;;;;;;;-7.72;71.23;99370.03;4897445;29;20040;-67
2021/12/02 04:31:56;;;;;;;5.18;4.57;;;;;;;-7.73;71.35;99370.97;4898817;29;20489;-71
2021/12/02 04:34:22;;;;;;;35.53;7.50;;;;;;;-7.81;72.30;99374.78;4898684;29;20047;-65
2021/12/02 04:36:48;;;;;;;5.95;4.30;;;;;;;-7.96;71.74;99360.09;4881481;29;20040;-65
2021/12/02 04:39:13;;;;;;;5.90;4.57;;;;;;;-7.89;72.42;99376.09;4897871;29;20043;-68
2021/12/02 04:41:39;;;;;;;8.50;4.87;;;;;;;-7.88;72.49;99382.94;4880043;29;20493;-70
2021/12/02 04:44:06;;;;;;;6.37;5.60;;;;;;;-8.02;72.63;99373.34;4901921;29;20056;-70
2021/12/02 04:46:33;;;;;;;5.68;5.00;;;;;;;-7.97;72.83;99379.09;4916875;29;20056;-69
2021/12/02 04:48:59;;;;;;;5.53;4.97;;;;;;;-8.21;73.83;99354.53;4916445;29;20040;-71
2021/12/02 04:51:24;;;;;;;6.73;4.93;;;;;;;-8.13;73.84;99370.44;4915966;29;20132;-64
2021/12/02 04:53:50;;;;;;;9.70;4.67;;;;;;;-8.10;73.40;99372.88;4915299;29;20051;-62
2021/12/02 04:56:16;;;;;;;7.63;5.60;;;;;;;-8.08;72.91;99386.56;4915458;29;20068;-64
2021/12/02 04:58:42;;;;;;;7.57;5.40;;;;;;;-8.14;73.32;99376.53;4897642;29;20032;-63
2021/12/02 05:01:07;;;;;;;7.53;5.35;;;;;;;-8.28;74.26;99374.66;4915369;29;20059;-64
2021/12/02 05:03:33;;;;;;;11.77;7.43;;;;;;;-8.36;73.82;99361.34;4916595;29;20040;-65
2021/12/02 05:05:58;;;;;;;9.10;6.57;;;;;;;-8.41;74.54;99362.47;4914402;29;20032;-65
2021/12/02 05:08:24;;;;;;;8.53;6.37;;;;;;;-8.36;74.43;99384.59;4916063;29;20035;-64
2021/12/02 05:10:49;;;;;;;11.87;7.33;;;;;;;-8.35;74.34;99394.00;4915294;29;20040;-62
2021/12/02 05:13:15;;;;;;;13.17;7.90;;;;;;;-8.47;74.76;99364.47;4915499;29;20489;-63
2021/12/02 05:15:41;;;;;;;16.13;8.97;;;;;;;-8.39;74.96;99381.31;4915630;29;20048;-63
2021/12/02 05:18:07;;;;;;;12.55;7.50;;;;;;;-8.49;74.67;99368.03;4898598;29;20115;-63
2021/12/02 05:20:33;;;;;;;14.40;7.43;;;;;;;-8.38;74.95;99389.00;4897521;29;20563;-62
2021/12/02 05:22:59;;;;;;;9.77;7.80;;;;;;;-8.36;74.62;99386.34;4897917;29;20032;-60
2021/12/02 05:25:25;;;;;;;9.85;7.15;;;;;;;-8.36;74.68;99371.69;4914081;29;20036;-62
2021/12/02 05:27:51;;;;;;;13.00;8.20;;;;;;;-8.40;74.63;99369.31;4914032;29;20510;-62
2021/12/02 05:30:16;;;;;;;16.50;13.60;;;;;;;-8.63;75.00;99337.78;4914156;29;20039;-63
2021/12/02 05:32:42;;;;;;;10.43;8.50;;;;;;;-8.29;74.39;99393.66;4897150;29;20516;-62
2021/12/02 05:35:08;;;;;;;23.50;14.20;;;;;;;-8.30;75.52;99391.16;4915172;29;20611;-61
2021/12/02 05:37:34;;;;;;;15.20;9.30;;;;;;;-8.32;76.42;99391.25;4916064;29;20071;-62
2021/12/02 05:40:01;;;;;;;17.08;10.13;;;;;;;-8.33;75.47;99396.50;4915316;29;20040;-64
2021/12/02 05:42:27;;;;;;;14.57;9.57;;;;;;;-8.52;75.18;99374.19;4916208;29;20051;-61
2021/12/02 05:44:53;;;;;;;12.57;8.82;;;;;;;-8.41;74.96;99390.88;4916306;29;20544;-64
2021/12/02 05:47:19;;;;;;;10.67;8.83;;;;;;;-8.43;75.02;99396.94;4916428;29;20586;-62
2021/12/02 05:49:45;;;;;;;10.23;8.25;;;;;;;-8.44;75.06;99399.63;4898887;29;20404;-64
2021/12/02 05:52:11;;;;;;;13.20;9.57;;;;;;;-8.48;74.89;99396.34;4915965;29;20052;-62
2021/12/02 05:54:37;;;;;;;15.20;8.77;;;;;;;-8.55;75.03;99378.69;4915628;29;20036;-62
2021/12/02 05:57:03;;;;;;;13.40;10.60;;;;;;;-8.47;75.10;99394.59;4915556;29;20047;-61
2021/12/02 05:59:28;;;;;;;13.40;9.27;;;;;;;-8.44;75.13;99404.78;4915130;29;20473;-62
2021/12/02 06:01:54;;;;;;;12.97;8.60;;;;;;;-8.39;74.75;99407.97;4916351;29;20119;-63
2021/12/02 06:04:20;;;;;;;17.65;9.65;;;;;;;-8.40;75.35;99395.13;4918646;29;20039;-63
2021/12/02 06:06:46;;;;;;;19.53;11.30;;;;;;;-8.49;75.54;99379.19;4918835;29;20517;-62
2021/12/02 06:09:12;;;;;;;9.80;8.47;;;;;;;-8.37;74.64;99400.16;4918984;29;20284;-64
2021/12/02 06:11:38;;;;;;;15.40;9.45;;;;;;;-8.47;74.75;99385.13;4919304;29;20036;-63
2021/12/02 06:14:04;;;;;;;11.97;9.37;;;;;;;-8.51;74.99;99373.28;4918524;29;20420;-61
2021/12/02 06:16:30;;;;;;;16.85;10.15;;;;;;;-8.52;74.94;99379.34;4918752;29;20035;-64
2021/12/02 06:18:56;;;;;;;16.83;9.32;;;;;;;-8.49;73.63;99381.78;4918325;29;20068;-64
2021/12/02 06:21:22;;;;;;;14.43;9.00;;;;;;;-8.41;74.09;99404.63;4901376;29;20036;-61
2021/12/02 06:23:48;;;;;;;12.93;8.90;;;;;;;-8.38;74.16;99426.88;4919047;29;20531;-60
2021/12/02 06:26:15;;;;;;;32.07;15.43;;;;;;;-8.37;74.64;99421.66;4918528;29;20040;-64
2021/12/02 06:28:40;;;;;;;15.95;10.77;;;;;;;-8.41;73.81;99424.44;4918286;29;20556;-65
2021/12/02 06:31:06;;;;;;;15.50;10.27;;;;;;;-8.46;73.51;99420.34;4918462;29;20028;-63
2021/12/02 06:33:33;;;;;;;19.50;10.93;;;;;;;-8.50;74.01;99421.41;4917773;29;20544;-61
2021/12/02 06:35:59;;;;;;;15.38;11.02;;;;;;;-8.79;73.55;99394.44;4918125;29;20051;-66
2021/12/02 06:38:25;;;;;;;16.20;9.13;;;;;;;-8.68;73.80;99417.16;4901244;29;20766;-65
2021/12/02 06:40:51;;;;;;;14.10;8.85;;;;;;;-9.55;74.00;99276.09;4918207;29;20048;-64
2021/12/02 06:43:17;;;;;;;10.83;8.20;;;;;;;-8.80;73.81;99402.28;4916202;29;20040;-66
2021/12/02 06:45:44;;;;;;;9.10;7.60;;;;;;;-8.68;74.10;99417.16;4900447;29;20088;-63
2021/12/02 06:48:09;;;;;;;14.73;8.63;;;;;;;-8.69;74.19;99406.91;4918061;29;20379;-66
2021/12/02 06:50:37;;;;;;;18.27;10.13;;;;;;;-8.71;74.66;99399.22;4917521;29;20123;-65
2021/12/02 06:53:05;;;;;;;14.57;9.43;;;;;;;-8.92;74.14;99366.75;4917794;29;20059;-65
2021/12/02 06:55:33;;;;;;;14.45;9.38;;;;;;;-8.47;73.96;99441.06;4918132;29;20130;-64
2021/12/02 06:57:58;;;;;;;16.40;9.05;;;;;;;-8.63;74.15;99406.63;4917617;29;20047;-63
2021/12/02 07:00:24;;;;;;;13.37;8.93;;;;;;;-8.58;74.11;99407.22;4917475;29;20404;-64
2021/12/02 07:02:54;;;;;;;15.90;10.50;;;;;;;-8.44;73.49;99441.75;4917384;29;20134;-63
2021/12/02 07:05:20;;;;;;;21.48;8.32;;;;;;;-8.49;73.71;99433.41;4911079;29;20115;-61
2021/12/02 07:07:46;;;;;;;19.63;11.50;;;;;;;-8.51;74.26;99448.16;4898851;29;20048;-63
2021/12/02 07:10:18;;;;;;;21.90;10.63;;;;;;;-8.71;73.84;99429.38;4881844;29;20092;-65
2021/12/02 07:12:47;;;;;;;21.45;9.27;;;;;;;-8.47;73.80;99446.25;4897984;29;20047;-64
2021/12/02 07:15:32;;;;;;;;;;;;;;;-8.39;73.20;99448.44;4898643;29;20036;-65
2021/12/02 07:18:01;;;;;;;13.75;8.95;;;;;;;-8.45;73.55;99445.25;4880999;29;19921;-67
2021/12/02 07:20:36;;;;;;;15.20;9.45;;;;;;;-8.64;73.52;99423.84;4898337;29;20044;-67
2021/12/02 07:23:02;;;;;;;12.45;9.80;;;;;;;-8.66;73.23;99415.34;4898834;29;20055;-67
2021/12/02 07:25:28;;;;;;;15.05;11.15;;;;;;;-8.68;73.50;99411.97;4881260;29;20056;-66
2021/12/02 07:27:58;;;;;;;17.23;8.27;;;;;;;-8.54;73.06;99435.38;4898122;29;20464;-66
2021/12/02 07:30:23;;;;;;;14.57;10.63;;;;;;;-8.59;73.68;99426.22;4897706;29;20135;-64
2021/12/02 07:32:56;;;;;;;11.77;7.70;;;;;;;-8.50;73.02;99448.97;4897729;29;20131;-63
2021/12/02 07:35:23;;;;;;;17.00;9.40;;;;;;;-8.42;73.05;99459.75;4897899;29;20050;-61
2021/12/02 07:37:50;;;;;;;9.75;7.97;;;;;;;-8.46;73.25;99453.91;4881060;29;20059;-63
2021/12/02 07:40:18;;;;;;;13.93;8.80;;;;;;;-8.65;73.76;99424.75;4881398;29;20076;-63
2021/12/02 07:42:45;;;;;;;13.00;9.38;;;;;;;-8.60;73.18;99435.69;4897719;29;20043;-65
2021/12/02 07:45:13;;;;;;;18.05;9.75;;;;;;;-8.55;73.09;99446.63;4897495;29;20064;-64
2021/12/02 07:47:43;;;;;;;13.60;10.20;;;;;;;-8.52;74.00;99461.97;4897276;29;20505;-62
2021/12/02 07:50:12;;;;;;;22.63;11.05;;;;;;;-8.62;73.68;99450.41;4897765;29;20413;-63
2021/12/02 07:52:54;;;;;;;14.63;8.93;;;;;;;-8.47;72.76;99472.06;4898050;29;20075;-65
2021/12/02 07:55:46;;;;;;;13.35;9.48;;;;;;;-8.39;72.50;99479.41;4891701;29;20110;-63
2021/12/02 07:58:11;;;;;;;14.82;10.50;;;;;;;-8.41;72.95;99486.41;4897677;29;20048;-63
2021/12/02 08:00:38;;;;;;;16.33;10.93;;;;;;;-8.52;72.81;99471.44;4878833;29;20044;-59
2021/12/02 08:03:08;;;;;;;21.40;11.18;;;;;;;-8.59;73.21;99475.25;4897617;29;20088;-66
2021/12/02 08:05:34;;;;;;;21.83;11.73;;;;;;;-8.83;73.81;99438.53;4897424;29;20083;-65
2021/12/02 08:07:59;;;;;;;27.10;15.13;;;;;;;-8.73;73.56;99460.41;4880554;29;20074;-63
2021/12/02 08:10:25;;;;;;;23.53;13.27;;;;;;;-8.68;73.59;99481.66;4897726;29;20516;-66
2021/12/02 08:12:50;;;;;;;16.57;11.37;;;;;;;-8.79;73.85;99474.44;4898842;29;20036;-63
2021/12/02 08:15:25;;;;;;;30.93;16.83;;;;;;;-8.79;73.70;99476.19;4897445;29;20036;-64
2021/12/02 08:17:52;;;;;;;12.57;8.52;;;;;;;-8.96;74.08;99458.94;4881189;29;20050;-64
2021/12/02 08:20:20;;;;;;;17.98;10.68;;;;;;;-8.93;73.34;99473.44;4880390;29;20040;-63
2021/12/02 08:22:46;;;;;;;17.10;11.00;;;;;;;-9.22;73.85;99428.38;4897469;29;20044;-65
2021/12/02 08:25:12;;;;;;;13.57;9.27;;;;;;;-8.96;73.79;99478.72;4896928;29;20092;-65
2021/12/02 08:27:41;;;;;;;12.90;9.15;;;;;;;-8.92;74.16;99475.09;4880853;29;20277;-69
2021/12/02 08:30:08;;;;;;;;;;;;;;;-8.79;74.17;99487.34;4897377;29;20131;-62
2021/12/02 08:32:40;;;;;;;11.18;9.00;;;;;;;-8.80;74.04;99484.84;4896926;29;19938;-61
2021/12/02 08:35:05;;;;;;;14.40;10.50;;;;;;;-8.88;74.65;99467.16;4896656;29;20147;-64
2021/12/02 08:37:34;;;;;;;17.20;10.93;;;;;;;-8.83;74.75;99474.66;4896670;29;20127;-63
2021/12/02 08:40:01;;;;;;;19.58;11.45;;;;;;;-8.82;74.96;99476.34;4897011;29;20097;-61
2021/12/02 08:42:32;;;;;;;19.63;10.75;;;;;;;-8.67;74.39;99496.28;4897441;29;20080;-64
2021/12/02 08:45:02;;;;;;;16.38;13.13;;;;;;;-8.67;74.03;99500.56;4864449;29;20416;-64
2021/12/02 08:47:31;;;;;;;15.73;10.93;;;;;;;-8.77;74.28;99482.13;4896499;29;20076;-62
2021/12/02 08:49:57;;;;;;;23.03;14.80;;;;;;;-8.70;74.13;99483.47;4896653;29;20087;-63
2021/12/02 08:52:26;;;;;;;14.77;11.53;;;;;;;-8.84;74.60;99465.25;4880167;29;20037;-62
2021/12/02 08:54:52;;;;;;;19.08;12.05;;;;;;;-9.17;74.82;99429.81;4896899;29;20284;-62
2021/12/02 08:57:20;;;;;;;17.48;15.20;;;;;;;-8.93;74.26;99473.44;4897637;29;20040;-62
2021/12/02 08:59:49;;;;;;;18.52;12.77;;;;;;;-8.88;74.97;99481.78;4879726;29;20109;-61
2021/12/02 09:02:15;;;;;;;21.50;12.23;;;;;;;-8.92;74.94;99469.94;4896328;29;20037;-63
2021/12/02 09:04:41;;;;;;;21.27;12.65;;;;;;;-9.05;74.61;99461.94;4896770;29;20528;-62
2021/12/02 09:07:07;;;;;;;20.53;11.87;;;;;;;-8.99;75.33;99478.84;4879806;29;20044;-63
2021/12/02 09:09:32;;;;;;;14.87;10.57;;;;;;;-8.93;75.31;99481.19;4896617;29;20036;-61
2021/12/02 09:11:58;;;;;;;18.23;10.87;;;;;;;-8.88;74.86;99487.78;4880300;29;20032;-60
2021/12/02 09:14:24;;;;;;;16.53;12.50;;;;;;;-8.86;75.38;99474.81;4897081;29;20083;-62
2021/12/02 09:16:51;;;;;;;17.97;11.63;;;;;;;-8.89;75.24;99475.81;4896897;29;20074;-62
2021/12/02 09:19:19;;;;;;;15.98;11.40;;;;;;;-8.99;75.14;99479.69;4896679;29;20504;-61
2021/12/02 09:21:44;;;;;;;14.88;10.98;;;;;;;-8.96;74.88;99474.41;4879925;29;20036;-65
2021/12/02 09:24:18;;;;;;;16.27;12.23;;;;;;;-8.98;75.04;99475.38;4896978;29;20404;-63
2021/12/02 09:26:45;;;;;;;20.95;14.18;;;;;;;-9.07;75.24;99463.75;4897458;29;20056;-64
2021/12/02 09:29:10;;;;;;;18.50;12.05;;;;;;;-9.07;75.10;99472.31;4898846;29;20043;-63
2021/12/02 09:31:36;;;;;;;17.50;11.37;;;;;;;-8.92;74.33;99481.09;4900123;29;20412;-70
2021/12/02 09:34:02;;;;;;;20.33;13.90;;;;;;;-8.89;74.52;99480.13;4898680;29;20040;-69
2021/12/02 09:36:27;;;;;;;16.77;12.70;;;;;;;-8.81;74.84;99475.44;4899802;29;20110;-72
2021/12/02 09:38:53;;;;;;;20.97;12.60;;;;;;;-8.84;74.31;99465.25;4904257;29;20104;-69
2021/12/02 09:41:18;;;;;;;23.07;12.13;;;;;;;-8.71;74.40;99486.97;4885464;29;20041;-63
2021/12/02 09:43:44;;;;;;;20.10;12.70;;;;;;;-8.68;74.67;99473.91;4902561;29;20457;-69
2021/12/02 09:46:10;;;;;;;20.83;11.30;;;;;;;-8.60;74.15;99471.84;4883325;29;20059;-68
2021/12/02 09:48:36;;;;;;;16.55;11.90;;;;;;;-8.58;74.31;99464.84;4884981;29;20056;-72
2021/12/02 09:53:48;;;;;;;15.27;10.13;;;;;;;-8.51;73.23;99444.72;4882259;29;20557;-69
2021/12/02 09:56:31;;;;;;;18.45;11.18;;;;;;;-8.57;74.02;99440.69;4880810;29;20097;-64
2021/12/02 09:59:09;;;;;;;18.02;11.73;;;;;;;-8.50;74.48;99449.81;4881321;29;20053;-66
2021/12/02 10:01:41;;;;;;;20.02;13.32;;;;;;;-8.50;74.15;99436.06;4864735;29;20049;-64
2021/12/02 10:04:10;;;;;;;19.30;11.63;;;;;;;-8.28;73.51;99446.16;4865133;29;20413;-63
2021/12/02 10:06:36;;;;;;;17.13;11.18;;;;;;;-8.21;73.48;99440.59;4881656;29;20056;-65
2021/12/02 10:09:27;;;;;;;20.33;11.90;;;;;;;-8.20;73.10;99441.41;4865228;29;20041;-64
2021/12/02 10:11:55;;;;;;;15.38;9.82;;;;;;;-8.12;73.36;99441.88;4864603;29;20486;-63
2021/12/02 10:14:24;;;;;;;22.88;12.07;;;;;;;-8.11;72.81;99440.94;4881680;29;20124;-66
2021/12/02 10:17:04;;;;;;;19.75;11.38;;;;;;;-8.05;72.97;99434.66;4864342;29;20041;-66
2021/12/02 10:19:30;;;;;;;20.95;11.13;;;;;;;-8.29;73.03;99367.00;4880857;29;20044;-62
2021/12/02 10:22:03;;;;;;;21.10;13.73;;;;;;;-8.16;72.92;99388.69;4863968;29;20052;-62
2021/12/02 10:24:29;;;;;;;20.20;12.60;;;;;;;-8.20;72.88;99393.19;4880883;29;20670;-69
2021/12/02 10:26:59;;;;;;;22.98;12.85;;;;;;;-8.02;73.53;99417.25;4880330;29;20049;-64
2021/12/02 10:29:29;;;;;;;25.48;13.85;;;;;;;-8.01;72.74;99400.84;4880711;29;20037;-67
2021/12/02 10:32:06;;;;;;;20.25;13.27;;;;;;;-8.07;74.34;99402.91;4864206;29;20045;-71
2021/12/02 10:34:44;;;;;;;23.70;15.20;;;;;;;-8.02;74.02;99412.09;4864355;29;20041;-66
2021/12/02 10:37:11;;;;;;;28.55;17.92;;;;;;;-8.01;74.47;99408.59;4881057;29;20073;-69
2021/12/02 10:39:37;;;;;;;41.33;24.05;;;;;;;-8.13;73.35;99375.63;4863409;29;20033;-64
2021/12/02 10:42:06;;;;;;;37.47;24.35;;;;;;;-7.96;72.83;99404.00;4880241;29;20049;-67
2021/12/02 10:44:35;;;;;;;37.55;23.20;;;;;;;-7.98;72.36;99392.09;4869511;29;20143;-69
2021/12/02 10:47:01;;;;;;;;;;;;;;;-7.62;72.82;99416.00;4898375;29;20075;-70
2021/12/02 10:49:29;;;;;;;28.20;18.67;;;;;;;-7.50;72.10;99419.69;4897617;29;20399;-66
2021/12/02 10:52:02;;;;;;;24.33;15.75;;;;;;;-7.97;72.36;99337.75;4897064;29;20041;-67
2021/12/02 10:54:31;;;;;;;20.17;15.68;;;;;;;-7.68;72.55;99405.16;4898855;29;20040;-67
2021/12/02 10:56:58;;;;;;;;;;;;;;;-7.52;73.09;99412.03;4886760;29;20033;-66
2021/12/02 10:59:39;;;;;;;15.82;10.65;;;;;;;-7.68;72.78;99389.63;4902153;29;19930;-68
2021/12/02 11:02:28;;;;;;;16.73;10.73;;;;;;;-7.68;72.80;99402.56;4904336;29;20532;-67
2021/12/02 11:04:56;;;;;;;16.02;10.60;;;;;;;-7.73;72.36;99400.22;4891208;29;20055;-68
2021/12/02 11:07:30;;;;;;;11.30;9.75;;;;;;;-7.73;72.74;99391.63;4903060;29;20196;-69
2021/12/02 11:09:59;;;;;;;14.70;8.38;;;;;;;-7.80;72.11;99385.97;4903945;29;20037;-69
2021/12/02 11:12:38;;;;;;;17.42;10.77;;;;;;;-7.85;72.05;99387.94;4901847;29;20615;-70
2021/12/02 11:15:17;;;;;;;14.30;10.23;;;;;;;-7.86;73.19;99396.59;4901398;29;20500;-69
2021/12/02 11:17:52;;;;;;;12.65;8.88;;;;;;;-8.23;72.72;99340.84;4903615;29;20390;-70
2021/12/02 11:20:36;;;;;;;14.15;7.30;;;;;;;-7.74;72.71;99398.56;4888181;29;20105;-70
2021/12/02 11:23:06;;;;;;;13.82;7.60;;;;;;;-7.85;72.38;99382.75;4882059;29;20099;-68
2021/12/02 11:25:34;;;;;;;8.70;6.72;;;;;;;-7.84;71.76;99395.59;4898156;29;20108;-68
2021/12/02 11:28:08;;;;;;;8.20;7.15;;;;;;;-7.86;72.17;99397.44;4881211;29;20052;-70
2021/12/02 11:30:36;;;;;;;9.45;7.50;;;;;;;-7.95;72.61;99402.25;4898652;29;20445;-68
2021/12/02 11:33:03;;;;;;;10.27;7.40;;;;;;;-7.99;72.22;99406.75;4901150;29;20092;-68
2021/12/02 11:35:33;;;;;;;9.85;7.43;;;;;;;-8.50;73.05;99343.13;4901988;29;20048;-69
2021/12/02 11:38:14;;;;;;;12.43;7.47;;;;;;;-8.11;72.98;99412.53;4898489;29;20039;-71
2021/12/02 11:40:42;;;;;;;16.15;8.43;;;;;;;-8.09;73.07;99404.69;4898314;29;20516;-70
2021/12/02 11:43:11;;;;;;;10.40;8.02;;;;;;;-8.12;73.41;99401.38;4901167;29;20032;-69
2021/12/02 11:45:46;;;;;;;17.30;9.90;;;;;;;-8.23;73.42;99385.59;4897821;29;20053;-71
2021/12/02 11:48:24;;;;;;;17.67;11.40;;;;;;;-8.22;73.76;99383.84;4897901;29;20049;-66
2021/12/02 11:50:54;;;;;;;13.52;9.82;;;;;;;-8.25;73.33;99378.84;4897951;29;20036;-72